This is the latest recevied weather packets stored in our database for station/object SA3VCC-15. If no packets are shown the sender has not sent any weather packets the latest 10 day(s).
| Time | Temp. | Humidity | Pressure | Rain* | Wind** | Luminosity | Snow |
|---|---|---|---|---|---|---|---|
| 1777503362 | 5.56° C | 10% | - | - | - | - | - |
| 1777502102 | 5° C | 10% | - | - | - | - | - |
| 1777500842 | 5.56° C | 99% | 1022.8 hPa | - | - | - | - |
| 1777498322 | 6.67° C | 93% | 1022.7 hPa | - | - | - | - |
| 1777497062 | 7.22° C | 90% | 1022.6 hPa | - | - | - | - |
| 1777495802 | 7.78° C | 91% | 1022.6 hPa | - | - | - | - |
| 1777492022 | 8.33° C | 80% | 1022.7 hPa | - | - | - | - |
| 1777490762 | 8.33° C | 78% | 1022.7 hPa | - | - | - | - |
| 1777489502 | 8.89° C | 76% | 1022.5 hPa | - | - | - | - |
| 1777485722 | 10° C | 67% | 1022.7 hPa | - | - | - | - |
| 1777484462 | 11.11° C | 65% | 1022.7 hPa | - | - | - | - |
| 1777483202 | 11.67° C | 63% | 1022.7 hPa | - | - | - | - |
| 1777481942 | 12.22° C | 60% | 1022.8 hPa | - | - | - | - |
| 1777479422 | 11.67° C | 62% | 1023.1 hPa | - | - | - | - |
| 1777478162 | 12.78° C | 58% | 1023.2 hPa | - | - | - | - |
| 1777476902 | 13.33° C | 55% | 1023.2 hPa | - | - | - | - |
| 1777475642 | 12.78° C | 61% | 1023.3 hPa | - | - | - | - |
| 1777473122 | 11.11° C | 65% | 1023.7 hPa | - | - | - | - |
| 1777471862 | 11.67° C | 65% | 1024 hPa | - | - | - | - |
| 1777470601 | 11.11° C | 70% | 1024.3 hPa | - | - | - | - |
| 1777469342 | 11.67° C | 66% | 1024.2 hPa | - | - | - | - |
| 1777466821 | 12.78° C | 59% | 1024.4 hPa | - | - | - | - |
| 1777465562 | 12.22° C | 58% | 1024.5 hPa | - | - | - | - |
| 1777464301 | 14.44° C | 49% | 1024.4 hPa | - | - | - | - |
| 1777463041 | 12.78° C | 50% | 1024.6 hPa | - | - | - | - |
* Rain since midnight (hover to see other rain measurements)
** Current wind speed in m/s (hover to see current wind gust speed)